createdAt,value
2023-02-09T00:01:32.611Z,10.73
2023-02-09T00:04:02.456Z,11.57
2023-02-09T00:06:30.830Z,9.98
2023-02-09T00:08:59.904Z,11.20
2023-02-09T00:11:49.464Z,9.45
2023-02-09T00:14:21.972Z,9.60
2023-02-09T00:16:51.098Z,11.40
2023-02-09T00:19:21.112Z,9.75
2023-02-09T00:21:49.793Z,11.25
2023-02-09T00:24:17.744Z,9.63
2023-02-09T00:26:47.379Z,9.82
2023-02-09T00:29:17.382Z,9.98
2023-02-09T00:31:45.360Z,10.40
2023-02-09T00:34:13.974Z,8.75
2023-02-09T00:36:42.056Z,9.95
2023-02-09T00:39:10.216Z,8.65
2023-02-09T00:41:56.042Z,9.65
2023-02-09T00:44:25.318Z,9.27
2023-02-09T00:46:53.336Z,8.95
2023-02-09T00:49:21.890Z,8.13
2023-02-09T00:51:49.894Z,8.13
2023-02-09T00:54:18.045Z,8.95
2023-02-09T00:56:46.801Z,8.50
2023-02-09T00:59:14.953Z,7.93
2023-02-09T01:01:44.273Z,8.80
2023-02-09T01:04:12.377Z,9.35
2023-02-09T01:06:40.372Z,8.60
2023-02-09T01:09:08.366Z,9.07
2023-02-09T01:11:36.263Z,9.60
2023-02-09T01:14:05.440Z,9.15
2023-02-09T01:16:33.667Z,7.82
2023-02-09T01:19:04.920Z,9.35
2023-02-09T01:21:33.079Z,10.02
2023-02-09T01:24:01.348Z,8.85
2023-02-09T01:26:29.278Z,8.05
2023-02-09T01:28:57.512Z,5.82
2023-02-09T01:31:29.796Z,8.65
2023-02-09T01:34:01.195Z,9.02
2023-02-09T01:36:32.098Z,9.18
2023-02-09T01:39:03.904Z,8.20
2023-02-09T01:41:33.736Z,8.80
2023-02-09T01:44:06.836Z,8.80
2023-02-09T01:46:37.153Z,8.02
2023-02-09T01:49:10.696Z,7.55
2023-02-09T01:51:46.191Z,7.85
2023-02-09T01:54:19.739Z,6.60
2023-02-09T01:56:56.398Z,8.15
2023-02-09T01:59:25.656Z,7.90
2023-02-09T02:01:54.204Z,8.35
2023-02-09T02:04:22.978Z,8.20
2023-02-09T02:06:58.851Z,8.32
2023-02-09T02:09:27.019Z,7.40
2023-02-09T02:11:55.198Z,8.23
2023-02-09T02:14:32.070Z,8.85
2023-02-09T02:17:20.697Z,8.27
2023-02-09T02:20:52.298Z,7.63
2023-02-09T02:23:34.337Z,7.72
2023-02-09T02:26:40.484Z,7.18
2023-02-09T02:30:13.276Z,7.57
2023-02-09T02:32:58.747Z,7.10
2023-02-09T02:35:35.914Z,7.75
2023-02-09T02:38:17.094Z,7.95
2023-02-09T02:40:59.784Z,7.68
2023-02-09T02:43:47.511Z,7.05
2023-02-09T02:46:23.904Z,4.93
2023-02-09T02:49:02.660Z,7.18
2023-02-09T02:51:36.593Z,6.78
2023-02-09T02:54:13.160Z,5.65
2023-02-09T02:56:46.939Z,6.88
2023-02-09T02:59:22.030Z,6.15
2023-02-09T03:01:58.654Z,7.22
2023-02-09T03:04:31.509Z,7.03
2023-02-09T03:06:59.869Z,7.28
2023-02-09T03:09:27.787Z,7.22
2023-02-09T03:12:06.405Z,6.80
2023-02-09T03:14:46.721Z,6.85
2023-02-09T03:17:27.389Z,7.35
2023-02-09T03:20:06.571Z,7.57
2023-02-09T03:22:39.467Z,5.95
2023-02-09T03:25:13.640Z,6.25
2023-02-09T03:27:46.215Z,7.18
2023-02-09T03:30:18.076Z,7.30
2023-02-09T03:32:48.206Z,7.80
2023-02-09T03:35:21.134Z,6.85
2023-02-09T03:37:49.035Z,7.43
2023-02-09T03:40:17.099Z,7.55
2023-02-09T03:42:44.966Z,7.47
2023-02-09T03:45:12.927Z,6.55
2023-02-09T03:47:40.813Z,6.68
2023-02-09T03:50:09.957Z,7.00
2023-02-09T03:52:39.201Z,6.30
2023-02-09T03:55:07.955Z,6.28
2023-02-09T03:57:36.267Z,6.88
2023-02-09T04:00:05.016Z,6.35
2023-02-09T04:02:39.961Z,6.43
2023-02-09T04:05:08.820Z,6.30
2023-02-09T04:07:36.938Z,7.13
2023-02-09T04:10:07.527Z,6.55
2023-02-09T04:12:35.720Z,6.38
2023-02-09T04:15:04.104Z,6.50
2023-02-09T04:17:31.980Z,7.20
2023-02-09T04:19:59.866Z,7.70
2023-02-09T04:22:28.046Z,6.75
2023-02-09T04:24:55.924Z,6.57
2023-02-09T04:27:27.060Z,6.40
2023-02-09T04:29:54.937Z,6.68
2023-02-09T04:32:22.817Z,5.82
2023-02-09T04:34:50.704Z,6.25
2023-02-09T04:37:18.616Z,6.60
2023-02-09T04:39:46.472Z,6.75
2023-02-09T04:42:14.402Z,6.72
2023-02-09T04:44:43.600Z,7.38
2023-02-09T04:47:11.519Z,6.70
2023-02-09T04:49:39.383Z,6.25
2023-02-09T04:52:07.269Z,6.90
2023-02-09T04:54:35.187Z,6.55
2023-02-09T04:57:20.752Z,5.70
2023-02-09T04:59:49.964Z,5.55
2023-02-09T05:02:18.019Z,6.50
2023-02-09T05:04:45.900Z,6.32
2023-02-09T05:07:13.780Z,6.28
2023-02-09T05:09:42.086Z,6.50
2023-02-09T05:12:10.165Z,6.35
2023-02-09T05:14:38.593Z,6.60
2023-02-09T05:17:07.800Z,6.15
2023-02-09T05:19:36.692Z,7.13
2023-02-09T05:22:04.604Z,6.32
2023-02-09T05:24:32.640Z,6.43
2023-02-09T05:27:00.493Z,6.65
2023-02-09T05:29:31.081Z,6.68
2023-02-09T05:31:58.952Z,6.35
2023-02-09T05:34:28.385Z,6.13
2023-02-09T05:36:56.284Z,6.68
2023-02-09T05:39:24.249Z,6.07
2023-02-09T05:42:10.261Z,5.65
2023-02-09T05:44:38.239Z,5.43
2023-02-09T05:47:06.622Z,6.90
2023-02-09T05:49:36.320Z,6.30
2023-02-09T05:52:05.159Z,5.97
2023-02-09T05:54:33.081Z,6.80
2023-02-09T05:57:01.116Z,6.07
2023-02-09T05:59:29.197Z,6.15
2023-02-09T06:01:57.142Z,6.22
2023-02-09T06:04:25.629Z,5.82
2023-02-09T06:06:55.772Z,7.15
2023-02-09T06:09:24.532Z,5.90
2023-02-09T06:11:52.683Z,6.65
2023-02-09T06:14:21.299Z,6.07
2023-02-09T06:16:49.271Z,6.15
2023-02-09T06:19:19.807Z,6.18
2023-02-09T06:21:48.090Z,6.72
2023-02-09T06:24:17.620Z,5.60
2023-02-09T06:26:45.520Z,5.85
2023-02-09T06:29:13.431Z,6.30
2023-02-09T06:31:41.851Z,7.18
2023-02-09T06:34:10.979Z,6.38
2023-02-09T06:36:39.083Z,6.97
2023-02-09T06:39:09.123Z,5.97
2023-02-09T06:41:38.832Z,7.30
2023-02-09T06:44:07.139Z,5.70
2023-02-09T06:46:35.378Z,6.25
2023-02-09T06:49:03.620Z,7.15
2023-02-09T06:51:31.837Z,7.18
2023-02-09T06:53:59.978Z,5.60
2023-02-09T06:56:30.412Z,6.55
2023-02-09T06:58:59.605Z,6.03
2023-02-09T07:01:27.564Z,5.70
2023-02-09T07:03:55.455Z,5.60
2023-02-09T07:06:23.356Z,6.32
2023-02-09T07:08:52.239Z,4.53
2023-02-09T07:11:21.091Z,6.60
2023-02-09T07:13:49.491Z,6.40
2023-02-09T07:16:18.765Z,6.38
2023-02-09T07:18:46.741Z,7.63
2023-02-09T07:21:18.626Z,6.30
2023-02-09T07:23:47.143Z,7.78
2023-02-09T07:26:17.859Z,6.22
2023-02-09T07:28:46.346Z,6.45
2023-02-09T07:31:17.080Z,7.28
2023-02-09T07:33:47.313Z,5.72
2023-02-09T07:36:17.507Z,6.32
2023-02-09T07:38:46.197Z,5.80
2023-02-09T07:41:17.315Z,6.43
2023-02-09T07:43:45.816Z,6.35
2023-02-09T07:46:19.434Z,6.40
2023-02-09T07:48:49.498Z,6.07
2023-02-09T07:51:19.933Z,6.05
2023-02-09T07:53:49.538Z,4.63
2023-02-09T07:56:17.848Z,5.85
2023-02-09T07:58:45.837Z,6.82
2023-02-09T08:01:15.249Z,5.90
2023-02-09T08:03:47.670Z,6.22
2023-02-09T08:06:30.383Z,6.07
2023-02-09T08:09:06.045Z,6.40
2023-02-09T08:11:41.418Z,6.18
2023-02-09T08:14:16.680Z,6.38
2023-02-09T08:16:45.865Z,5.70
2023-02-09T08:19:20.316Z,6.27
2023-02-09T08:21:50.671Z,6.17
2023-02-09T08:24:22.161Z,6.60
2023-02-09T08:26:51.002Z,6.53
2023-02-09T08:29:19.189Z,6.83
2023-02-09T08:31:47.328Z,6.30
2023-02-09T08:34:15.488Z,6.63
2023-02-09T08:36:43.681Z,6.93
2023-02-09T08:39:13.094Z,6.27
2023-02-09T08:41:41.015Z,6.73
2023-02-09T08:44:09.176Z,6.87
2023-02-09T08:46:37.275Z,6.10
2023-02-09T08:49:05.279Z,7.07
2023-02-09T08:51:33.288Z,7.20
2023-02-09T08:54:01.185Z,5.90
2023-02-09T08:56:30.435Z,6.57
2023-02-09T08:58:58.634Z,6.93
2023-02-09T09:01:26.882Z,6.03
2023-02-09T09:03:54.838Z,6.30
2023-02-09T09:06:22.926Z,7.27
2023-02-09T09:08:51.575Z,6.07
2023-02-09T09:11:20.759Z,6.77
2023-02-09T09:13:49.978Z,9.40
2023-02-09T09:16:21.727Z,6.00
2023-02-09T09:18:50.761Z,7.63
2023-02-09T09:21:20.161Z,6.00
2023-02-09T09:23:48.998Z,5.70
2023-02-09T09:26:18.358Z,6.00
2023-02-09T09:28:46.837Z,6.10
2023-02-09T09:31:17.743Z,5.77
2023-02-09T09:33:47.776Z,5.70
2023-02-09T09:36:15.885Z,5.40
2023-02-09T09:38:44.312Z,5.90
2023-02-09T09:41:25.487Z,6.53
2023-02-09T09:43:55.657Z,6.43
2023-02-09T09:46:36.235Z,6.30
2023-02-09T09:49:05.439Z,7.17
2023-02-09T09:51:41.033Z,5.77
2023-02-09T09:54:17.000Z,6.93
2023-02-09T09:56:45.567Z,6.60
2023-02-09T09:59:20.187Z,6.90
2023-02-09T10:01:52.969Z,6.63
2023-02-09T10:04:21.786Z,5.83
2023-02-09T10:06:59.973Z,6.03
2023-02-09T10:09:41.215Z,6.20
2023-02-09T10:12:31.300Z,5.80
2023-02-09T10:14:59.458Z,6.30
2023-02-09T10:17:28.925Z,6.43
2023-02-09T10:20:05.847Z,5.70
2023-02-09T10:22:33.780Z,5.57
2023-02-09T10:25:03.320Z,6.57
2023-02-09T10:27:32.344Z,6.13
2023-02-09T10:30:20.287Z,6.20
2023-02-09T10:32:49.617Z,7.60
2023-02-09T10:35:28.220Z,6.50
2023-02-09T10:38:02.723Z,6.40
2023-02-09T10:40:34.348Z,6.47
2023-02-09T10:43:07.413Z,7.30
2023-02-09T10:45:41.498Z,6.90
2023-02-09T10:48:20.674Z,5.97
2023-02-09T10:50:56.487Z,6.57
2023-02-09T10:53:29.227Z,6.50
2023-02-09T10:56:05.331Z,6.60
2023-02-09T10:58:37.193Z,5.90
2023-02-09T11:01:19.094Z,6.50
2023-02-09T11:04:04.587Z,5.90
2023-02-09T11:06:44.333Z,6.33
2023-02-09T11:09:18.108Z,6.47
2023-02-09T11:11:46.950Z,6.93
2023-02-09T11:14:18.536Z,6.20
2023-02-09T11:17:13.985Z,5.83
2023-02-09T11:20:23.202Z,5.77
2023-02-09T11:23:34.203Z,6.33
2023-02-09T11:26:10.101Z,5.43
2023-02-09T11:28:52.170Z,5.53
2023-02-09T11:31:49.071Z,5.70
2023-02-09T11:34:54.994Z,5.23
2023-02-09T11:37:36.926Z,5.53
2023-02-09T11:40:25.675Z,5.20
2023-02-09T11:43:11.457Z,5.23
2023-02-09T11:45:46.554Z,5.40
2023-02-09T11:48:25.789Z,4.90
2023-02-09T11:51:04.617Z,5.90
2023-02-09T11:53:46.644Z,6.20
2023-02-09T11:56:17.943Z,5.53
2023-02-09T11:58:54.828Z,5.97
2023-02-09T12:01:37.740Z,6.70
2023-02-09T12:04:18.763Z,6.57
2023-02-09T12:06:51.554Z,6.77
2023-02-09T12:09:48.032Z,6.13
2023-02-09T12:12:30.026Z,6.40
2023-02-09T12:15:17.982Z,6.30
2023-02-09T12:17:51.679Z,6.37
2023-02-09T12:20:29.260Z,5.73
2023-02-09T12:23:04.473Z,6.00
2023-02-09T12:25:50.281Z,6.13
2023-02-09T12:28:41.113Z,5.13
2023-02-09T12:31:26.128Z,6.83
2023-02-09T12:34:21.254Z,7.43
2023-02-09T12:37:27.398Z,6.30
2023-02-09T12:40:25.207Z,6.77
2023-02-09T12:43:27.937Z,6.77
2023-02-09T12:46:20.345Z,10.60
2023-02-09T12:49:10.318Z,7.30
2023-02-09T12:51:55.206Z,6.97
2023-02-09T12:54:42.380Z,6.00
2023-02-09T12:57:53.487Z,5.60
2023-02-09T13:00:52.829Z,5.60
2023-02-09T13:03:25.424Z,5.87
2023-02-09T13:06:00.959Z,5.53
2023-02-09T13:08:37.580Z,5.70
2023-02-09T13:11:24.395Z,6.47
2023-02-09T13:13:58.082Z,6.33
2023-02-09T13:17:13.158Z,5.97
2023-02-09T13:20:23.266Z,6.87
2023-02-09T13:23:04.499Z,6.20
2023-02-09T13:25:36.856Z,7.53
2023-02-09T13:28:15.613Z,6.43
2023-02-09T13:30:44.217Z,6.20
2023-02-09T13:33:30.407Z,6.27
2023-02-09T13:36:27.025Z,5.73
2023-02-09T13:38:55.164Z,6.27
2023-02-09T13:41:32.779Z,5.53
2023-02-09T13:44:00.816Z,6.00
2023-02-09T13:46:35.243Z,6.50
2023-02-09T13:49:21.847Z,6.37
2023-02-09T13:52:16.387Z,6.00
2023-02-09T13:54:44.886Z,6.20
2023-02-09T13:57:30.528Z,5.47
2023-02-09T14:00:10.038Z,6.37
2023-02-09T14:02:52.706Z,5.57
2023-02-09T14:05:40.950Z,6.50
2023-02-09T14:08:12.334Z,6.60
2023-02-09T14:10:46.706Z,7.13
2023-02-09T14:13:23.043Z,6.07
2023-02-09T14:16:09.032Z,5.83
2023-02-09T14:18:50.447Z,6.00
2023-02-09T14:21:28.487Z,5.70
2023-02-09T14:24:24.988Z,5.23
2023-02-09T14:26:57.405Z,6.50
2023-02-09T14:29:30.176Z,5.73
2023-02-09T14:32:01.306Z,5.50
2023-02-09T14:34:33.834Z,4.90
2023-02-09T14:37:30.257Z,5.73
2023-02-09T14:40:01.780Z,5.23
2023-02-09T14:42:31.956Z,6.00
2023-02-09T14:45:03.686Z,6.13
2023-02-09T14:47:43.955Z,6.17
2023-02-09T14:50:15.333Z,7.20
2023-02-09T14:52:47.175Z,7.30
2023-02-09T14:55:21.234Z,7.40
2023-02-09T14:57:49.133Z,7.30
2023-02-09T15:00:21.260Z,8.77
2023-02-09T15:02:50.526Z,7.43
2023-02-09T15:05:19.997Z,6.70
2023-02-09T15:07:56.817Z,6.83
2023-02-09T15:10:30.112Z,6.03
2023-02-09T15:12:59.017Z,6.53
2023-02-09T15:15:27.556Z,6.60
2023-02-09T15:17:58.096Z,5.97
2023-02-09T15:20:28.745Z,6.60
2023-02-09T15:22:58.755Z,7.43
2023-02-09T15:25:27.337Z,8.43
2023-02-09T15:27:59.515Z,8.33
2023-02-09T15:30:34.178Z,7.30
2023-02-09T15:33:02.690Z,8.07
2023-02-09T15:35:31.030Z,7.30
2023-02-09T15:38:02.406Z,7.73
2023-02-09T15:40:52.628Z,7.13
2023-02-09T15:43:41.587Z,8.03
2023-02-09T15:46:28.100Z,8.07
2023-02-09T15:48:56.113Z,6.50
2023-02-09T15:51:25.860Z,6.77
2023-02-09T15:53:58.369Z,7.10
2023-02-09T15:56:26.706Z,6.27
2023-02-09T15:58:57.109Z,6.47
2023-02-09T16:01:25.074Z,7.00
2023-02-09T16:03:55.236Z,19.47
2023-02-09T16:06:25.407Z,22.73
2023-02-09T16:08:59.608Z,10.57
2023-02-09T16:11:32.920Z,7.40
2023-02-09T16:14:01.953Z,6.97
2023-02-09T16:16:30.590Z,7.97
2023-02-09T16:18:58.512Z,6.80
2023-02-09T16:21:32.534Z,6.80
2023-02-09T16:24:05.757Z,7.20
2023-02-09T16:26:35.466Z,6.27
2023-02-09T16:29:03.308Z,6.27
2023-02-09T16:31:32.420Z,7.00
2023-02-09T16:34:00.318Z,7.18
2023-02-09T16:36:30.921Z,6.88
2023-02-09T16:38:58.834Z,6.63
2023-02-09T16:41:53.468Z,7.88
2023-02-09T16:44:23.866Z,7.25
2023-02-09T16:46:55.185Z,6.55
2023-02-09T16:49:43.627Z,6.80
2023-02-09T16:52:18.144Z,7.05
2023-02-09T16:54:49.655Z,6.65
2023-02-09T16:57:23.056Z,7.28
2023-02-09T16:59:52.319Z,6.63
2023-02-09T17:02:34.112Z,6.95
2023-02-09T17:05:09.037Z,7.83
2023-02-09T17:07:52.540Z,7.38
2023-02-09T17:10:29.446Z,8.05
2023-02-09T17:13:01.605Z,7.28
2023-02-09T17:15:33.966Z,8.70
2023-02-09T17:18:07.167Z,9.48
2023-02-09T17:20:42.015Z,9.37
2023-02-09T17:23:15.425Z,11.05
2023-02-09T17:25:44.245Z,8.45
2023-02-09T17:28:13.865Z,8.45
2023-02-09T17:30:43.936Z,8.48
2023-02-09T17:33:23.750Z,9.20
2023-02-09T17:36:23.655Z,8.93
2023-02-09T17:38:41.517Z,7.50
2023-02-09T17:41:17.049Z,7.65
2023-02-09T17:43:47.388Z,7.70
2023-02-09T17:46:18.752Z,8.45
2023-02-09T17:48:47.266Z,7.13
2023-02-09T17:51:21.772Z,8.75
2023-02-09T17:53:49.955Z,8.07
2023-02-09T17:56:19.306Z,7.43
2023-02-09T17:58:48.967Z,6.78
2023-02-09T18:01:27.295Z,7.13
2023-02-09T18:03:56.658Z,10.85
2023-02-09T18:06:34.258Z,8.10
2023-02-09T18:09:03.179Z,8.52
2023-02-09T18:12:01.981Z,9.20
2023-02-09T18:14:34.287Z,7.95
2023-02-09T18:17:03.102Z,7.28
2023-02-09T18:19:32.872Z,7.88
2023-02-09T18:22:03.610Z,7.03
2023-02-09T18:24:34.693Z,7.60
2023-02-09T18:27:03.271Z,7.25
2023-02-09T18:29:32.728Z,8.93
2023-02-09T18:32:03.552Z,7.30
2023-02-09T18:34:32.078Z,7.00
2023-02-09T18:36:59.998Z,7.05
2023-02-09T18:39:27.886Z,6.75
2023-02-09T18:41:55.795Z,6.95
2023-02-09T18:44:28.785Z,6.45
2023-02-09T18:47:01.918Z,6.20
2023-02-09T18:49:30.036Z,6.32
2023-02-09T18:51:59.292Z,6.03
2023-02-09T18:54:28.808Z,6.13
2023-02-09T18:56:56.868Z,7.45
2023-02-09T18:59:29.477Z,6.15
2023-02-09T19:01:58.919Z,7.60
2023-02-09T19:04:27.023Z,8.65
2023-02-09T19:06:55.086Z,8.07
2023-02-09T19:09:23.040Z,7.47
2023-02-09T19:11:50.929Z,7.45
2023-02-09T19:14:36.199Z,8.05
2023-02-09T19:17:06.899Z,7.30
2023-02-09T19:19:34.741Z,7.55
2023-02-09T19:22:02.602Z,7.40
2023-02-09T19:24:30.720Z,6.82
2023-02-09T19:26:58.682Z,6.80
2023-02-09T19:29:28.567Z,6.70
2023-02-09T19:31:56.882Z,7.07
2023-02-09T19:34:31.463Z,7.00
2023-02-09T19:36:59.797Z,7.40
2023-02-09T19:39:27.855Z,8.30
2023-02-09T19:41:55.741Z,9.10
2023-02-09T19:44:23.592Z,8.52
2023-02-09T19:46:51.493Z,7.70
2023-02-09T19:49:19.687Z,7.95
2023-02-09T19:51:49.205Z,7.57
2023-02-09T19:54:17.788Z,6.85
2023-02-09T19:56:45.983Z,6.70
2023-02-09T19:59:16.016Z,7.28
2023-02-09T20:01:44.331Z,7.47
2023-02-09T20:04:12.615Z,7.93
2023-02-09T20:06:40.817Z,6.78
2023-02-09T20:09:12.130Z,6.93
2023-02-09T20:11:40.028Z,7.38
2023-02-09T20:14:07.902Z,8.38
2023-02-09T20:16:36.199Z,7.18
2023-02-09T20:19:04.513Z,8.30
2023-02-09T20:21:32.639Z,7.70
2023-02-09T20:24:00.529Z,7.63
2023-02-09T20:26:32.977Z,7.07
2023-02-09T20:29:02.804Z,7.00
2023-02-09T20:31:34.703Z,7.00
2023-02-09T20:34:05.069Z,7.65
2023-02-09T20:36:35.679Z,6.88
2023-02-09T20:39:04.995Z,6.05
2023-02-09T20:41:34.378Z,6.35
2023-02-09T20:44:20.174Z,6.10
2023-02-09T20:46:57.042Z,6.72
2023-02-09T20:49:31.119Z,7.40
2023-02-09T20:51:59.668Z,6.60
2023-02-09T20:54:27.584Z,7.68
2023-02-09T20:56:57.138Z,8.73
2023-02-09T20:59:25.618Z,7.15
2023-02-09T21:01:53.520Z,7.53
2023-02-09T21:04:21.416Z,7.97
2023-02-09T21:06:49.618Z,7.75
2023-02-09T21:09:18.998Z,7.75
2023-02-09T21:11:46.946Z,7.57
2023-02-09T21:14:27.233Z,7.72
2023-02-09T21:16:56.241Z,7.78
2023-02-09T21:19:25.642Z,7.90
2023-02-09T21:21:54.166Z,7.22
2023-02-09T21:24:22.222Z,7.28
2023-02-09T21:26:50.224Z,7.47
2023-02-09T21:29:19.545Z,6.53
2023-02-09T21:31:47.566Z,6.82
2023-02-09T21:34:16.017Z,7.05
2023-02-09T21:36:44.792Z,7.13
2023-02-09T21:39:12.690Z,7.75
2023-02-09T21:42:00.834Z,9.32
2023-02-09T21:44:33.606Z,10.00
2023-02-09T21:47:01.497Z,10.38
2023-02-09T21:49:31.523Z,9.57
2023-02-09T21:51:59.708Z,10.00
2023-02-09T21:54:33.020Z,8.95
2023-02-09T21:57:01.280Z,9.27
2023-02-09T21:59:31.896Z,9.27
2023-02-09T22:01:59.784Z,8.63
2023-02-09T22:04:27.737Z,9.27
2023-02-09T22:06:55.681Z,9.85
2023-02-09T22:09:24.919Z,9.50
2023-02-09T22:11:52.885Z,8.40
2023-02-09T22:14:20.769Z,8.63
2023-02-09T22:16:49.964Z,7.80
2023-02-09T22:19:18.294Z,7.32
2023-02-09T22:21:46.231Z,6.85
2023-02-09T22:24:16.569Z,6.80
2023-02-09T22:26:44.568Z,7.13
2023-02-09T22:29:14.860Z,7.15
2023-02-09T22:31:46.402Z,7.85
2023-02-09T22:34:16.589Z,8.02
2023-02-09T22:36:44.450Z,8.00
2023-02-09T22:39:12.611Z,8.30
2023-02-09T22:41:42.585Z,8.23
2023-02-09T22:44:13.637Z,7.65
2023-02-09T22:46:44.222Z,8.52
2023-02-09T22:49:18.100Z,8.80
2023-02-09T22:51:47.934Z,8.27
2023-02-09T22:54:19.969Z,8.20
2023-02-09T22:56:48.460Z,8.20
2023-02-09T22:59:16.939Z,8.40
2023-02-09T23:01:48.366Z,8.60
2023-02-09T23:04:17.864Z,8.50
2023-02-09T23:06:46.257Z,8.63
2023-02-09T23:09:15.745Z,9.23
2023-02-09T23:11:46.536Z,8.23
2023-02-09T23:14:14.408Z,8.33
2023-02-09T23:16:44.939Z,9.33
2023-02-09T23:19:15.957Z,8.93
2023-02-09T23:21:47.929Z,8.83
2023-02-09T23:24:21.558Z,9.20
2023-02-09T23:26:49.790Z,8.67
2023-02-09T23:29:19.285Z,9.30
2023-02-09T23:31:48.684Z,8.70
2023-02-09T23:34:19.595Z,10.00
2023-02-09T23:36:49.260Z,9.53
2023-02-09T23:39:19.698Z,9.17
2023-02-09T23:41:47.973Z,8.77
2023-02-09T23:44:15.923Z,9.93
2023-02-09T23:46:44.610Z,9.63
2023-02-09T23:49:12.799Z,9.67
2023-02-09T23:51:40.927Z,9.70
2023-02-09T23:54:11.797Z,10.20
2023-02-09T23:56:40.922Z,9.33
2023-02-09T23:59:14.101Z,10.80
